Aérodrome :







RETROUVEZ-NOUS SUR...

 
LOGIN :

S'inscrire | Disclaimer

   EN    FR    IT 

 









Légende :    VFR   VFR Marginal   IFR   IFR Intensif   IFR Très Intensif
Visi : 
Plafond : 
>= 8 km
>= 3000ft
5 à 8 km
1000 à 3000 ft
1500m à 5 km
500 à 1000 ft
800 à 1500m
200 à 500 ft
< 800m
< 200 ft
Symboles :   Orages  Brouillard  Fortes neiges  Fortes précipitations  Vent > 20 kt






- Altitude de l'aérodrome : 285 ft
- Code IATA : ALB


KALB - Albany International

DERNIER METAR :
  • 150151Z 26009KT 7SM FEW002 SCT018 OVC027 07/05 A2917 RMK AO2 RAB21E43 SLP878 P0001 T00720050

METARs EXPIRÉS :
  • 150051Z 20006KT 1/4SM R01/3500FT FG OVC002 07/06 A2913 RMK AO2 SLP864 T00720056
  • 150022Z 18009KT 1/4SM R01/5500VP6000FT BR BKN002 OVC009 07/06 A2911 RMK AO2 SFC VIS 3/4 T00720056
  • 150011Z 16008KT 1 1/2SM BR BKN004 OVC009 07/06 A2910 RMK AO2 TWR VIS 2 T00720056
  • 142351Z VRB04KT 4SM BR BKN004 BKN009 OVC013 07/05 A2910 RMK AO2 DZE51 SLP855 P0000 60005 T00670050 10078 20067 55018

TAF KALB
Valide du 15 à 01h jusqu'au 16 à 00h UTC


150105Z 1501/1524 20006KT 2SM -SHRA BR OVC006
TEMPO 1501/1503 1/4SM FG OVC002
FM150300 26012G20KT P6SM VCSH OVC015
FM150600 27018G28KT P6SM BKN025
FM151500 27023G38KT P6SM BKN040



MET'MAP, la Météo Aéronautique d'un coup d'oeil ! - Copyright ORBIFLY Décembre 2007 - Disclaimer

ORBIFLY MET'MAP TEAM :

Programmation & Développement : Alexandra Zaïnal
Sur une idée originale de : Baudouin d'Aumeries
Assistance à la programmation : Marc-Olivier Méhu
Soutien technique & logistique : Manuel Goepfert

Contact : metmap@orbifly.com




SOURCES & CREDITS :

   NOAA